createdAt,value
2022-08-23T00:02:06.898Z,85.13
2022-08-23T00:05:03.521Z,85.13
2022-08-23T00:07:29.854Z,85.05
2022-08-23T00:09:56.253Z,85.32
2022-08-23T00:12:25.076Z,85.40
2022-08-23T00:14:54.704Z,85.61
2022-08-23T00:17:30.964Z,85.60
2022-08-23T00:20:02.227Z,85.90
2022-08-23T00:22:28.606Z,85.96
2022-08-23T00:24:55.022Z,86.46
2022-08-23T00:27:21.397Z,86.47
2022-08-23T00:29:53.078Z,86.54
2022-08-23T00:32:29.466Z,86.88
2022-08-23T00:34:56.661Z,87.04
2022-08-23T00:37:23.549Z,87.22
2022-08-23T00:39:50.061Z,87.00
2022-08-23T00:43:02.254Z,87.37
2022-08-23T00:46:05.459Z,87.88
2022-08-23T00:48:33.634Z,87.86
2022-08-23T00:51:08.053Z,87.78
2022-08-23T00:53:38.354Z,88.26
2022-08-23T00:56:09.242Z,88.46
2022-08-23T00:58:35.872Z,88.31
2022-08-23T01:01:06.027Z,88.45
2022-08-23T01:03:38.820Z,88.45
2022-08-23T01:06:27.137Z,88.63
2022-08-23T01:08:57.783Z,88.91
2022-08-23T01:11:33.430Z,89.05
2022-08-23T01:14:15.326Z,89.21
2022-08-23T01:16:54.012Z,89.37
2022-08-23T01:19:35.345Z,89.59
2022-08-23T01:22:36.043Z,89.82
2022-08-23T01:25:08.924Z,89.88
2022-08-23T01:27:36.750Z,89.91
2022-08-23T01:30:09.789Z,90.11
2022-08-23T01:32:44.087Z,90.01
2022-08-23T01:35:11.769Z,89.59
2022-08-23T01:37:38.475Z,89.78
2022-08-23T01:40:05.891Z,90.01
2022-08-23T01:42:32.330Z,90.50
2022-08-23T01:44:58.715Z,90.87
2022-08-23T01:47:25.271Z,90.53
2022-08-23T01:49:51.721Z,90.94
2022-08-23T01:52:19.446Z,90.90
2022-08-23T01:54:45.924Z,90.81
2022-08-23T01:57:12.369Z,90.87
2022-08-23T01:59:38.833Z,90.89
2022-08-23T02:02:05.701Z,90.89
2022-08-23T02:04:32.128Z,90.63
2022-08-23T02:06:58.515Z,90.94
2022-08-23T02:09:25.752Z,90.78
2022-08-23T02:11:52.401Z,90.80
2022-08-23T02:14:20.926Z,90.87
2022-08-23T02:17:03.812Z,90.91
2022-08-23T02:19:33.028Z,90.52
2022-08-23T02:21:59.612Z,90.76
2022-08-23T02:24:26.022Z,90.60
2022-08-23T02:26:56.954Z,90.63
2022-08-23T02:29:25.166Z,90.63
2022-08-23T02:31:52.708Z,90.19
2022-08-23T02:34:19.965Z,90.17
2022-08-23T02:36:47.425Z,90.28
2022-08-23T02:39:15.510Z,90.39
2022-08-23T02:41:43.604Z,90.38
2022-08-23T02:44:11.012Z,90.07
2022-08-23T02:46:38.379Z,89.97
2022-08-23T02:49:05.014Z,90.10
2022-08-23T02:51:31.463Z,89.83
2022-08-23T02:53:58.007Z,90.11
2022-08-23T02:56:24.635Z,89.99
2022-08-23T02:58:54.505Z,90.15
2022-08-23T03:01:30.019Z,90.55
2022-08-23T03:03:58.245Z,90.73
2022-08-23T03:06:26.475Z,90.48
2022-08-23T03:08:54.568Z,90.48
2022-08-23T03:11:22.315Z,90.14
2022-08-23T03:13:50.548Z,90.02
2022-08-23T03:16:17.681Z,89.73
2022-08-23T03:18:45.792Z,89.66
2022-08-23T03:21:13.056Z,89.20
2022-08-23T03:23:39.549Z,89.15
2022-08-23T03:26:09.892Z,89.21
2022-08-23T03:28:38.564Z,89.62
2022-08-23T03:31:06.479Z,89.25
2022-08-23T03:33:33.233Z,89.11
2022-08-23T03:36:01.281Z,89.04
2022-08-23T03:38:27.980Z,89.13
2022-08-23T03:40:54.877Z,88.50
2022-08-23T03:43:21.807Z,88.66
2022-08-23T03:45:48.205Z,88.69
2022-08-23T03:48:14.707Z,88.44
2022-08-23T03:50:41.162Z,88.39
2022-08-23T03:53:07.793Z,88.61
2022-08-23T03:55:42.293Z,88.78
2022-08-23T03:58:10.352Z,88.55
2022-08-23T04:00:36.993Z,88.57
2022-08-23T04:03:03.782Z,88.65
2022-08-23T04:05:30.126Z,88.14
2022-08-23T04:07:56.540Z,88.16
2022-08-23T04:10:23.555Z,87.99
2022-08-23T04:12:50.053Z,88.40
2022-08-23T04:15:16.578Z,88.33
2022-08-23T04:17:42.954Z,88.50
2022-08-23T04:20:10.071Z,88.43
2022-08-23T04:22:36.707Z,88.39
2022-08-23T04:25:04.172Z,88.26
2022-08-23T04:27:36.319Z,88.44
2022-08-23T04:30:02.869Z,87.93
2022-08-23T04:32:29.638Z,88.03
2022-08-23T04:34:55.997Z,87.79
2022-08-23T04:37:23.185Z,87.98
2022-08-23T04:40:07.955Z,87.89
2022-08-23T04:42:34.477Z,87.90
2022-08-23T04:45:01.497Z,88.15
2022-08-23T04:47:27.919Z,87.96
2022-08-23T04:49:54.286Z,87.50
2022-08-23T04:52:20.651Z,87.28
2022-08-23T04:54:47.124Z,87.28
2022-08-23T04:57:15.290Z,87.02
2022-08-23T04:59:42.354Z,86.92
2022-08-23T05:02:08.736Z,86.88
2022-08-23T05:04:35.084Z,86.80
2022-08-23T05:07:01.431Z,86.43
2022-08-23T05:09:27.884Z,86.71
2022-08-23T05:11:54.246Z,86.59
2022-08-23T05:14:20.830Z,86.60
2022-08-23T05:16:47.199Z,86.36
2022-08-23T05:19:13.645Z,85.87
2022-08-23T05:21:39.971Z,86.12
2022-08-23T05:24:06.360Z,85.52
2022-08-23T05:26:33.194Z,84.85
2022-08-23T05:28:59.652Z,83.90
2022-08-23T05:31:29.181Z,83.68
2022-08-23T05:33:55.748Z,83.38
2022-08-23T05:36:22.426Z,82.89
2022-08-23T05:38:50.372Z,83.32
2022-08-23T05:41:17.852Z,83.03
2022-08-23T05:43:48.036Z,82.46
2022-08-23T05:46:20.133Z,82.98
2022-08-23T05:48:50.881Z,82.48
2022-08-23T05:51:22.399Z,82.58
2022-08-23T05:53:50.276Z,83.04
2022-08-23T05:56:28.734Z,82.43
2022-08-23T05:58:59.959Z,82.48
2022-08-23T06:01:29.067Z,80.76
2022-08-23T06:03:56.033Z,80.48
2022-08-23T06:06:22.369Z,79.36
2022-08-23T06:09:03.291Z,78.90
2022-08-23T06:11:30.204Z,78.35
2022-08-23T06:13:59.169Z,76.95
2022-08-23T06:16:47.407Z,77.84
2022-08-23T06:19:14.617Z,76.67
2022-08-23T06:21:41.864Z,75.98
2022-08-23T06:24:08.337Z,75.51
2022-08-23T06:26:38.146Z,74.55
2022-08-23T06:29:11.137Z,75.11
2022-08-23T06:31:46.887Z,75.39
2022-08-23T06:34:18.448Z,73.80
2022-08-23T06:36:47.619Z,73.70
2022-08-23T06:39:15.565Z,72.98
2022-08-23T06:41:42.316Z,73.74
2022-08-23T06:44:10.207Z,72.29
2022-08-23T06:46:38.356Z,72.21
2022-08-23T06:49:06.628Z,72.28
2022-08-23T06:51:46.022Z,71.75
2022-08-23T06:54:14.766Z,71.59
2022-08-23T06:56:43.364Z,70.92
2022-08-23T06:59:10.033Z,71.12
2022-08-23T07:01:46.583Z,70.39
2022-08-23T07:04:16.153Z,70.42
2022-08-23T07:06:43.323Z,69.56
2022-08-23T07:09:09.733Z,69.79
2022-08-23T07:11:36.616Z,68.67
2022-08-23T07:14:07.027Z,67.82
2022-08-23T07:16:36.083Z,67.19
2022-08-23T07:19:03.962Z,65.61
2022-08-23T07:21:31.283Z,66.72
2022-08-23T07:23:58.050Z,65.33
2022-08-23T07:26:25.071Z,65.73
2022-08-23T07:28:51.570Z,67.33
2022-08-23T07:31:27.182Z,67.80
2022-08-23T07:33:55.770Z,67.17
2022-08-23T07:36:28.036Z,65.63
2022-08-23T07:38:55.586Z,65.73
2022-08-23T07:41:25.048Z,65.47
2022-08-23T07:43:51.674Z,64.97
2022-08-23T07:46:18.098Z,65.05
2022-08-23T07:48:53.839Z,64.07
2022-08-23T07:51:21.188Z,62.91
2022-08-23T07:53:47.883Z,61.38
2022-08-23T07:56:16.078Z,61.82
2022-08-23T07:58:42.542Z,61.54
2022-08-23T08:01:18.945Z,61.05
2022-08-23T08:03:47.715Z,61.12
2022-08-23T08:06:17.925Z,62.22
2022-08-23T08:08:44.505Z,61.69
2022-08-23T08:11:12.823Z,61.07
2022-08-23T08:13:41.116Z,61.17
2022-08-23T08:16:08.703Z,60.99
2022-08-23T08:18:36.548Z,59.83
2022-08-23T08:21:04.009Z,59.69
2022-08-23T08:23:30.755Z,58.55
2022-08-23T08:26:06.309Z,58.41
2022-08-23T08:28:34.179Z,59.08
2022-08-23T08:31:00.541Z,59.31
2022-08-23T08:33:30.874Z,59.18
2022-08-23T08:36:01.038Z,59.20
2022-08-23T08:38:30.722Z,59.28
2022-08-23T08:41:19.615Z,58.90
2022-08-23T08:44:03.700Z,58.89
2022-08-23T08:46:45.552Z,59.98
2022-08-23T08:49:38.549Z,59.57
2022-08-23T08:52:20.296Z,59.83
2022-08-23T08:54:49.866Z,58.67
2022-08-23T08:57:27.418Z,58.69
2022-08-23T09:00:05.099Z,59.34
2022-08-23T09:02:34.442Z,59.14
2022-08-23T09:05:05.581Z,58.90
2022-08-23T09:07:50.480Z,57.40
2022-08-23T09:10:35.007Z,58.19
2022-08-23T09:13:20.588Z,57.91
2022-08-23T09:16:03.448Z,57.98
2022-08-23T09:18:34.089Z,57.80
2022-08-23T09:21:02.099Z,56.33
2022-08-23T09:24:00.849Z,57.08
2022-08-23T09:26:30.547Z,56.03
2022-08-23T09:29:02.449Z,55.90
2022-08-23T09:31:45.445Z,56.46
2022-08-23T09:34:18.481Z,56.79
2022-08-23T09:36:44.967Z,55.85
2022-08-23T09:39:31.808Z,55.12
2022-08-23T09:41:59.098Z,54.42
2022-08-23T09:44:54.542Z,53.99
2022-08-23T09:47:31.892Z,53.53
2022-08-23T09:50:09.425Z,54.16
2022-08-23T09:52:38.647Z,52.92
2022-08-23T09:55:10.641Z,52.50
2022-08-23T09:57:37.393Z,52.30
2022-08-23T10:00:23.685Z,50.81
2022-08-23T10:02:50.337Z,51.13
2022-08-23T10:05:30.482Z,51.34
2022-08-23T10:08:01.774Z,50.51
2022-08-23T10:10:50.128Z,50.89
2022-08-23T10:13:17.614Z,49.41
2022-08-23T10:16:08.127Z,48.57
2022-08-23T10:18:50.803Z,49.01
2022-08-23T10:21:37.714Z,48.49
2022-08-23T10:24:34.318Z,49.78
2022-08-23T10:27:46.312Z,48.94
2022-08-23T10:30:17.904Z,48.02
2022-08-23T10:32:50.141Z,47.69
2022-08-23T10:35:49.442Z,46.99
2022-08-23T10:38:40.534Z,46.11
2022-08-23T10:41:31.406Z,46.71
2022-08-23T10:44:04.835Z,45.57
2022-08-23T10:46:40.225Z,46.03
2022-08-23T10:49:10.974Z,45.23
2022-08-23T10:51:42.846Z,45.70
2022-08-23T10:54:16.191Z,44.45
2022-08-23T10:56:49.536Z,43.51
2022-08-23T10:59:22.076Z,44.94
2022-08-23T11:02:00.858Z,44.43
2022-08-23T11:04:51.499Z,43.71
2022-08-23T11:07:26.277Z,43.33
2022-08-23T11:09:58.264Z,44.01
2022-08-23T11:12:28.971Z,44.08
2022-08-23T11:15:08.440Z,43.56
2022-08-23T11:17:49.026Z,44.15
2022-08-23T11:20:50.142Z,42.48
2022-08-23T11:23:58.044Z,43.03
2022-08-23T11:26:27.384Z,42.65
2022-08-23T11:28:56.128Z,42.25
2022-08-23T11:31:30.559Z,43.64
2022-08-23T11:34:06.133Z,42.31
2022-08-23T11:36:34.062Z,42.21
2022-08-23T11:39:07.928Z,43.30
2022-08-23T11:41:56.054Z,42.28
2022-08-23T11:44:38.346Z,42.89
2022-08-23T11:47:10.707Z,42.60
2022-08-23T11:49:58.600Z,41.38
2022-08-23T11:52:58.373Z,42.57
2022-08-23T11:55:52.667Z,40.51
2022-08-23T11:58:25.868Z,41.49
2022-08-23T12:01:10.686Z,40.16
2022-08-23T12:03:59.835Z,40.71
2022-08-23T12:06:39.191Z,39.50
2022-08-23T12:09:36.387Z,40.38
2022-08-23T12:12:33.604Z,40.05
2022-08-23T12:15:12.023Z,39.73
2022-08-23T12:17:41.260Z,40.05
2022-08-23T12:20:16.906Z,40.76
2022-08-23T12:22:59.586Z,41.69
2022-08-23T12:25:27.015Z,40.24
2022-08-23T12:28:07.520Z,40.21
2022-08-23T12:31:00.217Z,39.46
2022-08-23T12:33:51.762Z,38.91
2022-08-23T12:36:28.586Z,38.42
2022-08-23T12:39:07.775Z,38.57
2022-08-23T12:41:56.746Z,38.18
2022-08-23T12:44:26.640Z,38.19
2022-08-23T12:46:53.537Z,38.15
2022-08-23T12:49:34.094Z,38.21
2022-08-23T12:52:05.911Z,39.77
2022-08-23T12:54:43.274Z,39.17
2022-08-23T12:57:17.292Z,38.87
2022-08-23T13:00:17.347Z,38.59
2022-08-23T13:02:57.029Z,38.84
2022-08-23T13:05:41.724Z,38.17
2022-08-23T13:08:11.204Z,37.99
2022-08-23T13:10:40.668Z,38.68
2022-08-23T13:13:15.073Z,39.53
2022-08-23T13:15:56.017Z,38.53
2022-08-23T13:18:25.032Z,39.75
2022-08-23T13:21:17.501Z,40.20
2022-08-23T13:23:45.656Z,39.94
2022-08-23T13:26:42.259Z,39.85
2022-08-23T13:29:21.055Z,40.19
2022-08-23T13:32:03.190Z,39.75
2022-08-23T13:34:44.122Z,37.96
2022-08-23T13:37:28.911Z,38.56
2022-08-23T13:39:58.436Z,39.33
2022-08-23T13:42:29.510Z,38.89
2022-08-23T13:44:55.951Z,38.82
2022-08-23T13:47:35.790Z,37.62
2022-08-23T13:50:08.524Z,37.75
2022-08-23T13:52:56.752Z,37.49
2022-08-23T13:55:25.300Z,38.32
2022-08-23T13:57:52.139Z,38.51
2022-08-23T14:00:19.690Z,37.25
2022-08-23T14:02:49.407Z,37.16
2022-08-23T14:05:19.133Z,36.55
2022-08-23T14:07:47.548Z,36.73
2022-08-23T14:10:15.068Z,35.62
2022-08-23T14:12:45.344Z,36.38
2022-08-23T14:15:12.490Z,35.94
2022-08-23T14:17:42.841Z,35.34
2022-08-23T14:23:00.468Z,36.69
2022-08-23T14:25:31.450Z,36.44
2022-08-23T14:27:58.685Z,35.63
2022-08-23T14:30:32.246Z,35.35
2022-08-23T14:32:59.585Z,35.55
2022-08-23T14:35:26.906Z,36.16
2022-08-23T14:38:08.594Z,35.65
2022-08-23T14:40:35.982Z,35.69
2022-08-23T14:43:04.856Z,34.84
2022-08-23T14:45:32.444Z,35.42
2022-08-23T14:47:58.861Z,34.96
2022-08-23T14:50:25.641Z,35.57
2022-08-23T14:52:54.726Z,34.66
2022-08-23T14:55:24.884Z,36.11
2022-08-23T14:57:51.659Z,36.33
2022-08-23T15:00:18.471Z,35.53
2022-08-23T15:02:47.424Z,35.76
2022-08-23T15:05:14.882Z,35.24
2022-08-23T15:07:41.734Z,35.15
2022-08-23T15:10:10.124Z,35.70
2022-08-23T15:15:23.845Z,36.41
2022-08-23T15:17:56.240Z,36.57
2022-08-23T15:20:26.626Z,35.93
2022-08-23T15:22:55.894Z,36.66
2022-08-23T15:25:24.168Z,36.20
2022-08-23T15:27:51.511Z,36.17
2022-08-23T15:30:18.188Z,36.34
2022-08-23T15:32:52.527Z,36.78
2022-08-23T15:35:24.372Z,36.31
2022-08-23T15:37:52.366Z,36.45
2022-08-23T15:40:18.861Z,36.97
2022-08-23T15:42:45.231Z,37.38
2022-08-23T15:45:11.699Z,37.68
2022-08-23T15:47:47.190Z,37.38
2022-08-23T15:50:13.960Z,37.25
2022-08-23T15:52:40.305Z,36.70
2022-08-23T15:55:07.102Z,37.13
2022-08-23T15:57:42.953Z,37.95
2022-08-23T16:00:11.325Z,37.74
2022-08-23T16:02:57.595Z,38.20
2022-08-23T16:05:24.344Z,37.48
2022-08-23T16:07:55.428Z,38.20
2022-08-23T16:10:25.131Z,38.10
2022-08-23T16:12:54.486Z,38.45
2022-08-23T16:15:21.000Z,38.19
2022-08-23T16:17:47.349Z,38.28
2022-08-23T16:20:14.142Z,38.60
2022-08-23T16:22:41.031Z,39.57
2022-08-23T16:25:08.553Z,40.44
2022-08-23T16:27:34.965Z,40.57
2022-08-23T16:30:01.753Z,40.62
2022-08-23T16:32:28.135Z,40.07
2022-08-23T16:34:54.509Z,41.03
2022-08-23T16:37:20.960Z,41.29
2022-08-23T16:39:47.485Z,41.02
2022-08-23T16:42:14.484Z,40.13
2022-08-23T16:44:40.813Z,40.82
2022-08-23T16:47:09.774Z,40.57
2022-08-23T16:49:36.783Z,40.94
2022-08-23T16:52:03.822Z,41.32
2022-08-23T16:54:30.264Z,41.15
2022-08-23T16:56:56.673Z,41.29
2022-08-23T16:59:23.094Z,41.33
2022-08-23T17:01:56.115Z,41.66
2022-08-23T17:04:30.707Z,42.08
2022-08-23T17:06:58.592Z,42.33
2022-08-23T17:09:27.465Z,42.06
2022-08-23T17:11:55.095Z,41.82
2022-08-23T17:14:23.984Z,42.45
2022-08-23T17:16:50.547Z,42.69
2022-08-23T17:19:16.947Z,42.36
2022-08-23T17:21:43.460Z,42.75
2022-08-23T17:24:10.512Z,42.40
2022-08-23T17:26:37.640Z,42.31
2022-08-23T17:29:04.751Z,43.05
2022-08-23T17:31:31.651Z,43.51
2022-08-23T17:34:03.027Z,43.34
2022-08-23T17:37:00.711Z,43.31
2022-08-23T17:39:29.147Z,43.77
2022-08-23T17:41:57.555Z,43.88
2022-08-23T17:44:24.311Z,44.34
2022-08-23T17:46:51.018Z,44.24
2022-08-23T17:49:20.199Z,45.20
2022-08-23T17:51:47.002Z,44.60
2022-08-23T17:54:16.080Z,44.91
2022-08-23T17:56:43.465Z,44.52
2022-08-23T17:59:18.292Z,44.97
2022-08-23T18:01:44.723Z,45.88
2022-08-23T18:04:11.693Z,46.00
2022-08-23T18:06:38.188Z,45.59
2022-08-23T18:09:06.804Z,45.87
2022-08-23T18:11:34.747Z,46.06
2022-08-23T18:14:01.122Z,46.67
2022-08-23T18:16:34.423Z,46.39
2022-08-23T18:19:02.607Z,47.03
2022-08-23T18:21:30.814Z,47.10
2022-08-23T18:23:58.766Z,47.24
2022-08-23T18:26:44.084Z,47.87
2022-08-23T18:29:12.117Z,48.41
2022-08-23T18:31:40.864Z,48.16
2022-08-23T18:34:07.319Z,48.74
2022-08-23T18:36:33.970Z,49.63
2022-08-23T18:39:00.336Z,49.54
2022-08-23T18:41:26.772Z,50.25
2022-08-23T18:43:53.332Z,50.13
2022-08-23T18:46:20.329Z,51.02
2022-08-23T18:48:53.310Z,50.58
2022-08-23T18:51:20.697Z,51.72
2022-08-23T18:53:47.156Z,52.53
2022-08-23T18:56:13.526Z,53.43
2022-08-23T18:58:39.881Z,59.03
2022-08-23T19:01:26.074Z,60.78
2022-08-23T19:03:53.878Z,61.90
2022-08-23T19:06:21.017Z,61.71
2022-08-23T19:08:47.644Z,62.48
2022-08-23T19:11:15.615Z,63.26
2022-08-23T19:13:42.142Z,62.21
2022-08-23T19:16:15.354Z,61.06
2022-08-23T19:18:44.684Z,60.76
2022-08-23T19:21:11.427Z,61.15
2022-08-23T19:23:37.872Z,61.16
2022-08-23T19:26:07.996Z,62.60
2022-08-23T19:28:36.195Z,64.25
2022-08-23T19:31:05.147Z,64.31
2022-08-23T19:33:32.459Z,64.08
2022-08-23T19:35:58.934Z,64.70
2022-08-23T19:38:27.595Z,65.71
2022-08-23T19:40:54.952Z,66.07
2022-08-23T19:43:21.646Z,64.84
2022-08-23T19:45:48.170Z,63.10
2022-08-23T19:48:14.544Z,63.68
2022-08-23T19:50:41.544Z,64.51
2022-08-23T19:53:08.050Z,63.52
2022-08-23T19:55:38.959Z,64.58
2022-08-23T19:58:05.902Z,63.47
2022-08-23T20:00:34.550Z,63.64
2022-08-23T20:03:01.712Z,64.45
2022-08-23T20:05:28.600Z,64.52
2022-08-23T20:07:55.065Z,64.89
2022-08-23T20:10:21.767Z,65.85
2022-08-23T20:12:48.129Z,65.48
2022-08-23T20:15:14.532Z,64.89
2022-08-23T20:17:41.476Z,65.83
2022-08-23T20:20:10.048Z,68.29
2022-08-23T20:22:55.195Z,67.31
2022-08-23T20:25:21.878Z,65.72
2022-08-23T20:27:48.668Z,65.93
2022-08-23T20:30:15.086Z,66.62
2022-08-23T20:32:42.462Z,66.52
2022-08-23T20:35:10.103Z,67.36
2022-08-23T20:37:37.152Z,68.38
2022-08-23T20:40:05.836Z,67.77
2022-08-23T20:42:32.271Z,68.16
2022-08-23T20:44:58.842Z,69.27
2022-08-23T20:47:25.293Z,68.24
2022-08-23T20:49:51.749Z,66.80
2022-08-23T20:52:18.239Z,67.21
2022-08-23T20:54:45.768Z,68.79
2022-08-23T20:57:12.209Z,68.63
2022-08-23T20:59:43.665Z,68.94
2022-08-23T21:02:10.993Z,69.94
2022-08-23T21:04:37.780Z,69.27
2022-08-23T21:07:08.097Z,68.93
2022-08-23T21:09:34.693Z,68.44
2022-08-23T21:12:01.089Z,68.63
2022-08-23T21:14:27.521Z,69.21
2022-08-23T21:16:54.004Z,70.55
2022-08-23T21:19:20.382Z,72.01
2022-08-23T21:21:46.915Z,71.79
2022-08-23T21:24:13.894Z,69.65
2022-08-23T21:26:40.770Z,68.85
2022-08-23T21:29:08.342Z,68.09
2022-08-23T21:31:35.209Z,68.40
2022-08-23T21:34:01.764Z,67.87
2022-08-23T21:36:28.449Z,67.96
2022-08-23T21:38:54.877Z,67.91
2022-08-23T21:41:40.787Z,68.20
2022-08-23T21:44:12.995Z,68.32
2022-08-23T21:46:39.941Z,68.05
2022-08-23T21:49:07.044Z,68.10
2022-08-23T21:51:35.059Z,68.09
2022-08-23T21:54:02.824Z,67.72
2022-08-23T21:56:30.031Z,67.85
2022-08-23T21:59:01.852Z,67.85
2022-08-23T22:01:30.235Z,67.62
2022-08-23T22:03:57.328Z,67.66
2022-08-23T22:06:24.382Z,68.04
2022-08-23T22:08:50.848Z,68.14
2022-08-23T22:11:17.220Z,68.54
2022-08-23T22:13:44.278Z,68.94
2022-08-23T22:16:10.734Z,69.75
2022-08-23T22:18:37.178Z,70.50
2022-08-23T22:21:06.835Z,70.58
2022-08-23T22:23:36.082Z,69.95
2022-08-23T22:26:06.702Z,69.86
2022-08-23T22:28:34.038Z,70.47
2022-08-23T22:31:02.098Z,69.60
2022-08-23T22:33:29.669Z,69.71
2022-08-23T22:36:03.080Z,69.26
2022-08-23T22:38:30.530Z,68.57
2022-08-23T22:40:58.151Z,68.40
2022-08-23T22:43:24.558Z,68.39
2022-08-23T22:45:57.209Z,67.98
2022-08-23T22:48:25.119Z,67.81
2022-08-23T22:51:02.440Z,68.95
2022-08-23T22:53:28.774Z,69.02
2022-08-23T22:55:55.136Z,68.26
2022-08-23T22:58:21.510Z,67.99
2022-08-23T23:00:47.859Z,68.17
2022-08-23T23:03:14.242Z,68.21
2022-08-23T23:05:41.025Z,68.29
2022-08-23T23:08:25.734Z,69.32
2022-08-23T23:10:52.427Z,68.62
2022-08-23T23:13:20.757Z,68.09
2022-08-23T23:15:47.257Z,68.33
2022-08-23T23:18:13.625Z,68.40
2022-08-23T23:20:40.751Z,69.22
2022-08-23T23:23:09.772Z,70.73
2022-08-23T23:25:40.100Z,71.81
2022-08-23T23:28:06.579Z,73.46
2022-08-23T23:30:34.140Z,72.37
2022-08-23T23:33:01.617Z,72.74
2022-08-23T23:35:30.756Z,73.13
2022-08-23T23:37:58.278Z,72.58
2022-08-23T23:40:26.084Z,72.79
2022-08-23T23:42:52.610Z,72.04
2022-08-23T23:45:19.821Z,72.67
2022-08-23T23:47:46.316Z,72.95
2022-08-23T23:50:13.475Z,71.71
2022-08-23T23:52:40.937Z,71.23
2022-08-23T23:55:10.370Z,71.35
2022-08-23T23:57:37.442Z,71.35
